createdAt,value
2018-05-07T00:02:27.784Z,67.20
2018-05-07T00:05:00.068Z,67.50
2018-05-07T00:07:32.030Z,67.30
2018-05-07T00:10:03.335Z,67.30
2018-05-07T00:12:35.267Z,67.20
2018-05-07T00:15:06.474Z,67.20
2018-05-07T00:17:37.692Z,67.40
2018-05-07T00:20:09.606Z,68.20
2018-05-07T00:22:40.870Z,67.80
2018-05-07T00:25:12.791Z,67.80
2018-05-07T00:27:44.052Z,67.80
2018-05-07T00:30:15.240Z,67.80
2018-05-07T00:32:46.467Z,67.70
2018-05-07T00:35:17.702Z,67.80
2018-05-07T00:37:49.210Z,68.00
2018-05-07T00:40:21.117Z,67.70
2018-05-07T00:42:52.358Z,67.70
2018-05-07T00:45:23.515Z,67.90
2018-05-07T00:47:54.759Z,68.40
2018-05-07T00:50:25.981Z,68.40
2018-05-07T00:52:57.183Z,68.40
2018-05-07T00:55:28.443Z,68.70
2018-05-07T00:57:59.627Z,68.70
2018-05-07T01:00:30.903Z,68.90
2018-05-07T01:03:02.877Z,69.60
2018-05-07T01:05:34.832Z,69.10
2018-05-07T01:08:06.051Z,69.50
2018-05-07T01:10:38.071Z,69.70
2018-05-07T01:13:09.229Z,69.70
2018-05-07T01:15:40.471Z,69.80
2018-05-07T01:18:11.695Z,70.10
2018-05-07T01:20:42.886Z,70.00
2018-05-07T01:23:14.248Z,70.30
2018-05-07T01:25:46.178Z,70.40
2018-05-07T01:28:17.686Z,70.40
2018-05-07T01:30:48.847Z,70.60
2018-05-07T01:33:20.095Z,70.50
2018-05-07T01:35:51.327Z,70.40
2018-05-07T01:38:22.502Z,70.60
2018-05-07T01:40:53.720Z,70.20
2018-05-07T01:43:24.986Z,70.20
2018-05-07T01:45:56.160Z,70.30
2018-05-07T01:48:28.153Z,70.70
2018-05-07T01:50:59.394Z,70.70
2018-05-07T01:53:30.593Z,70.40
2018-05-07T01:56:02.112Z,70.60
2018-05-07T01:58:33.339Z,70.50
2018-05-07T02:01:04.614Z,70.60
2018-05-07T02:03:35.848Z,70.90
2018-05-07T02:06:07.052Z,71.10
2018-05-07T02:08:39.028Z,71.20
2018-05-07T02:11:10.235Z,71.10
2018-05-07T02:13:41.456Z,71.40
2018-05-07T02:16:12.695Z,71.90
2018-05-07T02:18:43.938Z,71.90
2018-05-07T02:21:15.160Z,72.00
2018-05-07T02:23:47.155Z,72.90
2018-05-07T02:26:18.369Z,72.80
2018-05-07T02:28:49.562Z,72.90
2018-05-07T02:31:36.014Z,72.80
2018-05-07T02:34:07.217Z,72.70
2018-05-07T02:36:38.477Z,72.40
2018-05-07T02:39:09.652Z,72.70
2018-05-07T02:41:40.902Z,72.90
2018-05-07T02:44:12.210Z,72.60
2018-05-07T02:46:44.166Z,72.80
2018-05-07T02:49:16.124Z,72.50
2018-05-07T02:51:48.079Z,72.50
2018-05-07T02:54:20.372Z,72.40
2018-05-07T02:56:51.567Z,72.40
2018-05-07T02:59:22.738Z,72.60
2018-05-07T03:01:54.695Z,73.30
2018-05-07T03:04:26.711Z,73.70
2018-05-07T03:06:57.897Z,73.70
2018-05-07T03:09:29.916Z,73.60
2018-05-07T03:12:01.196Z,73.60
2018-05-07T03:14:33.092Z,74.10
2018-05-07T03:17:04.247Z,74.10
2018-05-07T03:19:35.462Z,74.40
2018-05-07T03:22:07.386Z,74.20
2018-05-07T03:24:38.791Z,74.10
2018-05-07T03:27:09.967Z,73.80
2018-05-07T03:29:41.172Z,73.80
2018-05-07T03:32:12.388Z,73.80
2018-05-07T03:34:43.553Z,73.80
2018-05-07T03:37:15.498Z,73.70
2018-05-07T03:39:47.794Z,73.80
2018-05-07T03:42:18.970Z,73.80
2018-05-07T03:44:50.242Z,74.10
2018-05-07T03:47:21.431Z,74.70
2018-05-07T03:49:52.617Z,75.30
2018-05-07T03:52:23.793Z,74.80
2018-05-07T03:54:55.974Z,74.80
2018-05-07T03:57:27.536Z,74.70
2018-05-07T03:59:58.727Z,74.60
2018-05-07T04:02:30.681Z,74.70
2018-05-07T04:05:01.900Z,74.60
2018-05-07T04:07:33.061Z,74.80
2018-05-07T04:10:04.570Z,74.40
2018-05-07T04:12:36.555Z,74.20
2018-05-07T04:15:08.100Z,74.40
2018-05-07T04:17:51.656Z,74.60
2018-05-07T04:20:35.148Z,74.40
2018-05-07T04:23:18.792Z,74.10
2018-05-07T04:25:50.054Z,73.90
2018-05-07T04:28:21.237Z,73.80
2018-05-07T04:30:53.937Z,73.30
2018-05-07T04:33:25.098Z,73.50
2018-05-07T04:35:57.687Z,74.20
2018-05-07T04:38:28.797Z,73.50
2018-05-07T04:41:00.014Z,73.10
2018-05-07T04:43:31.180Z,72.70
2018-05-07T04:46:02.479Z,73.00
2018-05-07T04:48:33.993Z,72.90
2018-05-07T04:51:05.551Z,73.00
2018-05-07T04:53:36.757Z,73.20
2018-05-07T04:56:08.075Z,73.10
2018-05-07T04:58:39.292Z,72.90
2018-05-07T05:01:10.521Z,72.60
2018-05-07T05:03:41.779Z,72.40
2018-05-07T05:06:13.596Z,72.30
2018-05-07T05:08:45.517Z,73.00
2018-05-07T05:11:16.796Z,72.20
2018-05-07T05:13:49.482Z,72.10
2018-05-07T05:16:21.055Z,72.00
2018-05-07T05:18:52.255Z,71.60
2018-05-07T05:21:23.471Z,71.20
2018-05-07T05:23:54.640Z,70.90
2018-05-07T05:26:25.822Z,70.50
2018-05-07T05:28:57.904Z,70.10
2018-05-07T05:31:29.097Z,70.10
2018-05-07T05:34:00.283Z,69.50
2018-05-07T05:36:32.193Z,69.10
2018-05-07T05:39:03.432Z,69.00
2018-05-07T05:41:34.609Z,69.00
2018-05-07T05:44:06.562Z,68.70
2018-05-07T05:46:37.819Z,68.70
2018-05-07T05:49:09.798Z,68.00
2018-05-07T05:51:40.998Z,68.00
2018-05-07T05:54:12.495Z,67.90
2018-05-07T05:56:43.761Z,67.70
2018-05-07T05:59:15.294Z,67.20
2018-05-07T06:01:46.493Z,67.10
2018-05-07T06:04:17.742Z,67.10
2018-05-07T06:06:49.026Z,66.70
2018-05-07T06:09:20.222Z,66.20
2018-05-07T06:11:52.145Z,65.50
2018-05-07T06:14:23.415Z,65.50
2018-05-07T06:16:54.629Z,65.10
2018-05-07T06:19:25.837Z,64.70
2018-05-07T06:21:57.068Z,64.50
2018-05-07T06:24:29.764Z,62.90
2018-05-07T06:27:01.068Z,63.30
2018-05-07T06:29:32.507Z,63.30
2018-05-07T06:32:03.681Z,62.20
2018-05-07T06:34:35.118Z,60.60
2018-05-07T06:37:06.291Z,60.60
2018-05-07T06:39:38.246Z,60.00
2018-05-07T06:42:10.185Z,59.80
2018-05-07T06:44:42.151Z,59.50
2018-05-07T06:47:14.189Z,59.70
2018-05-07T06:49:45.922Z,59.60
2018-05-07T06:52:17.174Z,59.30
2018-05-07T06:54:48.380Z,58.60
2018-05-07T06:57:20.310Z,57.80
2018-05-07T06:59:51.581Z,57.80
2018-05-07T07:02:22.824Z,57.70
2018-05-07T07:04:54.021Z,57.10
2018-05-07T07:07:25.243Z,56.30
2018-05-07T07:09:56.513Z,56.40
2018-05-07T07:12:27.755Z,56.00
2018-05-07T07:15:00.126Z,55.30
2018-05-07T07:17:31.290Z,55.70
2018-05-07T07:20:02.542Z,55.30
2018-05-07T07:22:33.793Z,55.10
2018-05-07T07:25:05.013Z,54.60
2018-05-07T07:27:36.328Z,54.20
2018-05-07T07:30:07.489Z,54.40
2018-05-07T07:32:38.728Z,53.90
2018-05-07T07:35:09.881Z,54.00
2018-05-07T07:37:41.632Z,53.80
2018-05-07T07:40:12.879Z,53.70
2018-05-07T07:42:44.156Z,53.60
2018-05-07T07:45:15.372Z,53.90
2018-05-07T07:47:46.666Z,53.30
2018-05-07T07:50:23.557Z,53.40
2018-05-07T07:52:55.868Z,52.50
2018-05-07T07:55:27.090Z,52.50
2018-05-07T07:57:58.357Z,52.50
2018-05-07T08:00:29.917Z,52.10
2018-05-07T08:03:01.094Z,52.20
2018-05-07T08:05:33.102Z,51.50
2018-05-07T08:08:04.328Z,51.50
2018-05-07T08:10:35.650Z,51.20
2018-05-07T08:13:06.836Z,51.60
2018-05-07T08:15:38.237Z,51.90
2018-05-07T08:18:10.148Z,50.70
2018-05-07T08:20:41.394Z,50.60
2018-05-07T08:23:12.654Z,50.80
2018-05-07T08:25:44.674Z,50.80
2018-05-07T08:28:17.011Z,49.90
2018-05-07T08:30:48.506Z,49.70
2018-05-07T08:33:19.801Z,49.80
2018-05-07T08:35:51.001Z,49.90
2018-05-07T08:38:22.158Z,49.90
2018-05-07T08:40:53.355Z,49.40
2018-05-07T08:43:24.590Z,49.40
2018-05-07T08:45:55.818Z,49.60
2018-05-07T08:48:27.991Z,49.50
2018-05-07T08:51:00.374Z,49.40
2018-05-07T08:53:31.563Z,49.30
2018-05-07T08:56:02.830Z,48.60
2018-05-07T08:58:34.074Z,48.70
2018-05-07T09:01:05.395Z,48.70
2018-05-07T09:03:38.367Z,48.50
2018-05-07T09:06:09.750Z,48.70
2018-05-07T09:08:41.473Z,49.20
2018-05-07T09:11:12.729Z,49.30
2018-05-07T09:13:44.039Z,49.20
2018-05-07T09:16:15.308Z,49.30
2018-05-07T09:18:46.554Z,48.50
2018-05-07T09:21:17.826Z,48.60
2018-05-07T09:23:49.186Z,48.70
2018-05-07T09:26:21.309Z,48.30
2018-05-07T09:28:52.926Z,48.10
2018-05-07T09:31:24.156Z,48.30
2018-05-07T09:33:56.182Z,48.20
2018-05-07T09:36:27.459Z,48.20
2018-05-07T09:38:58.696Z,47.90
2018-05-07T09:41:30.663Z,47.90
2018-05-07T09:44:02.297Z,47.80
2018-05-07T09:46:33.544Z,47.40
2018-05-07T09:49:04.872Z,47.70
2018-05-07T09:51:35.930Z,47.10
2018-05-07T09:54:07.212Z,46.70
2018-05-07T09:56:51.701Z,46.50
2018-05-07T09:59:23.142Z,46.50
2018-05-07T10:01:54.381Z,46.30
2018-05-07T10:04:25.606Z,46.20
2018-05-07T10:06:56.826Z,45.10
2018-05-07T10:09:28.186Z,44.80
2018-05-07T10:11:59.416Z,46.00
2018-05-07T10:14:30.694Z,45.70
2018-05-07T10:17:02.737Z,45.20
2018-05-07T10:19:33.992Z,45.20
2018-05-07T10:22:05.146Z,44.90
2018-05-07T10:24:37.089Z,44.90
2018-05-07T10:27:08.301Z,44.90
2018-05-07T10:29:39.474Z,44.20
2018-05-07T10:32:10.697Z,43.90
2018-05-07T10:34:42.966Z,44.00
2018-05-07T10:37:14.127Z,45.20
2018-05-07T10:39:45.359Z,45.20
2018-05-07T10:42:16.525Z,44.00
2018-05-07T10:44:48.693Z,42.50
2018-05-07T10:47:20.650Z,43.00
2018-05-07T10:49:52.684Z,43.50
2018-05-07T10:52:23.878Z,43.00
2018-05-07T10:54:55.869Z,42.20
2018-05-07T10:57:27.786Z,42.20
2018-05-07T10:59:59.035Z,42.20
2018-05-07T11:02:31.022Z,43.00
2018-05-07T11:05:02.245Z,42.90
2018-05-07T11:07:33.835Z,42.30
2018-05-07T11:10:05.061Z,43.20
2018-05-07T11:12:36.348Z,43.60
2018-05-07T11:15:07.567Z,43.20
2018-05-07T11:17:38.962Z,41.90
2018-05-07T11:20:10.448Z,42.20
2018-05-07T11:22:41.645Z,42.00
2018-05-07T11:25:12.873Z,42.20
2018-05-07T11:27:44.070Z,42.60
2018-05-07T11:30:15.358Z,43.00
2018-05-07T11:32:46.654Z,41.60
2018-05-07T11:35:18.343Z,42.30
2018-05-07T11:37:49.569Z,42.80
2018-05-07T11:40:20.930Z,43.10
2018-05-07T11:42:52.134Z,42.90
2018-05-07T11:45:24.135Z,43.30
2018-05-07T11:47:55.360Z,43.30
2018-05-07T11:50:26.797Z,44.10
2018-05-07T11:52:58.754Z,45.20
2018-05-07T11:55:30.015Z,45.10
2018-05-07T11:58:01.229Z,45.10
2018-05-07T12:00:33.211Z,44.30
2018-05-07T12:03:04.406Z,44.30
2018-05-07T12:05:35.608Z,44.80
2018-05-07T12:08:06.889Z,43.50
2018-05-07T12:10:38.812Z,43.40
2018-05-07T12:13:10.073Z,43.30
2018-05-07T12:15:41.374Z,43.40
2018-05-07T12:18:12.603Z,43.30
2018-05-07T12:20:43.817Z,43.30
2018-05-07T12:23:15.046Z,43.20
2018-05-07T12:25:46.588Z,41.80
2018-05-07T12:28:17.804Z,42.70
2018-05-07T12:30:49.125Z,42.90
2018-05-07T12:33:20.391Z,41.50
2018-05-07T12:35:51.619Z,41.30
2018-05-07T12:38:23.680Z,41.60
2018-05-07T12:40:54.862Z,41.40
2018-05-07T12:43:26.841Z,43.60
2018-05-07T12:45:58.192Z,43.50
2018-05-07T12:48:30.128Z,43.50
2018-05-07T12:51:02.099Z,43.70
2018-05-07T12:53:33.560Z,43.70
2018-05-07T12:56:04.839Z,42.80
2018-05-07T12:58:36.170Z,42.30
2018-05-07T13:01:07.475Z,42.70
2018-05-07T13:03:39.377Z,42.60
2018-05-07T13:06:10.658Z,42.60
2018-05-07T13:08:41.923Z,42.40
2018-05-07T13:11:13.346Z,42.10
2018-05-07T13:13:44.584Z,41.40
2018-05-07T13:16:15.827Z,42.00
2018-05-07T13:18:47.123Z,42.30
2018-05-07T13:21:19.005Z,41.60
2018-05-07T13:23:50.261Z,41.60
2018-05-07T13:26:21.530Z,41.70
2018-05-07T13:28:53.622Z,41.50
2018-05-07T13:31:25.007Z,41.50
2018-05-07T13:33:56.200Z,42.50
2018-05-07T13:36:27.438Z,41.40
2018-05-07T13:38:58.633Z,41.20
2018-05-07T13:41:29.867Z,41.40
2018-05-07T13:44:01.112Z,40.60
2018-05-07T13:46:32.320Z,40.10
2018-05-07T13:49:04.334Z,41.70
2018-05-07T13:51:35.611Z,41.70
2018-05-07T13:54:06.837Z,41.00
2018-05-07T13:56:38.018Z,40.50
2018-05-07T13:59:09.600Z,40.20
2018-05-07T14:01:40.805Z,40.40
2018-05-07T14:04:12.911Z,42.20
2018-05-07T14:06:44.080Z,42.20
2018-05-07T14:09:15.785Z,42.50
2018-05-07T14:11:47.098Z,42.20
2018-05-07T14:14:18.347Z,41.40
2018-05-07T14:16:49.597Z,40.80
2018-05-07T14:19:20.810Z,40.30
2018-05-07T14:21:52.342Z,40.50
2018-05-07T14:24:23.530Z,40.20
2018-05-07T14:26:54.819Z,40.20
2018-05-07T14:29:26.649Z,40.20
2018-05-07T14:32:00.280Z,40.20
2018-05-07T14:34:32.089Z,40.50
2018-05-07T14:37:04.107Z,41.00
2018-05-07T14:39:35.381Z,40.90
2018-05-07T14:42:06.585Z,41.10
2018-05-07T14:44:37.890Z,41.40
2018-05-07T14:47:09.390Z,41.50
2018-05-07T14:49:41.596Z,41.20
2018-05-07T14:52:13.063Z,41.40
2018-05-07T14:54:44.688Z,41.70
2018-05-07T14:57:15.977Z,41.40
2018-05-07T14:59:47.974Z,41.00
2018-05-07T15:02:19.207Z,41.00
2018-05-07T15:04:50.478Z,40.70
2018-05-07T15:07:21.683Z,41.20
2018-05-07T15:09:52.965Z,41.40
2018-05-07T15:12:24.209Z,41.50
2018-05-07T15:14:55.450Z,41.40
2018-05-07T15:17:26.608Z,40.90
2018-05-07T15:19:57.836Z,41.90
2018-05-07T15:22:29.034Z,42.70
2018-05-07T15:25:01.275Z,42.00
2018-05-07T15:27:33.234Z,41.00
2018-05-07T15:30:04.493Z,40.90
2018-05-07T15:32:35.789Z,41.30
2018-05-07T15:35:07.106Z,41.40
2018-05-07T15:37:39.089Z,41.90
2018-05-07T15:40:10.338Z,41.90
2018-05-07T15:42:41.628Z,41.90
2018-05-07T15:45:12.940Z,42.30
2018-05-07T15:47:44.416Z,41.90
2018-05-07T15:50:15.645Z,41.40
2018-05-07T15:52:46.998Z,40.60
2018-05-07T15:55:18.179Z,40.80
2018-05-07T15:57:49.475Z,39.70
2018-05-07T16:00:20.742Z,38.90
2018-05-07T16:02:52.804Z,38.80
2018-05-07T16:05:24.005Z,38.80
2018-05-07T16:07:55.214Z,38.90
2018-05-07T16:10:26.439Z,39.20
2018-05-07T16:12:57.782Z,39.70
2018-05-07T16:15:29.056Z,39.90
2018-05-07T16:18:00.207Z,39.70
2018-05-07T16:20:31.624Z,39.40
2018-05-07T16:23:02.789Z,38.90
2018-05-07T16:25:34.754Z,38.50
2018-05-07T16:28:06.732Z,38.50
2018-05-07T16:30:38.211Z,38.40
2018-05-07T16:33:09.480Z,37.80
2018-05-07T16:35:40.711Z,37.90
2018-05-07T16:38:11.947Z,38.20
2018-05-07T16:40:43.203Z,38.40
2018-05-07T16:43:14.377Z,38.70
2018-05-07T16:45:45.662Z,39.00
2018-05-07T16:48:16.866Z,39.40
2018-05-07T16:50:48.967Z,39.60
2018-05-07T16:53:20.314Z,40.00
2018-05-07T16:55:51.552Z,40.30
2018-05-07T16:58:22.751Z,40.40
2018-05-07T17:00:54.042Z,40.30
2018-05-07T17:03:25.477Z,40.30
2018-05-07T17:05:56.557Z,40.60
2018-05-07T17:08:27.783Z,40.70
2018-05-07T17:10:59.005Z,40.60
2018-05-07T17:13:31.008Z,40.90
2018-05-07T17:16:02.251Z,40.80
2018-05-07T17:18:34.376Z,41.10
2018-05-07T17:21:06.693Z,41.20
2018-05-07T17:23:38.012Z,41.20
2018-05-07T17:26:09.304Z,41.60
2018-05-07T17:28:40.701Z,41.50
2018-05-07T17:31:12.008Z,41.30
2018-05-07T17:33:44.202Z,41.60
2018-05-07T17:36:15.282Z,41.60
2018-05-07T17:38:46.519Z,41.90
2018-05-07T17:41:17.797Z,42.10
2018-05-07T17:43:49.023Z,42.10
2018-05-07T17:46:42.285Z,42.20
2018-05-07T17:49:13.541Z,42.50
2018-05-07T17:51:44.787Z,42.70
2018-05-07T17:54:16.129Z,43.00
2018-05-07T17:56:47.353Z,43.20
2018-05-07T17:59:18.617Z,43.30
2018-05-07T18:01:49.829Z,43.80
2018-05-07T18:04:21.151Z,43.80
2018-05-07T18:06:53.117Z,44.00
2018-05-07T18:09:24.350Z,44.00
2018-05-07T18:11:56.267Z,44.40
2018-05-07T18:14:27.514Z,44.40
2018-05-07T18:16:58.768Z,44.50
2018-05-07T18:19:30.059Z,44.70
2018-05-07T18:22:01.251Z,45.00
2018-05-07T18:24:32.862Z,45.20
2018-05-07T18:27:04.383Z,45.60
2018-05-07T18:29:35.639Z,45.70
2018-05-07T18:32:07.966Z,46.10
2018-05-07T18:34:39.561Z,46.90
2018-05-07T18:37:11.598Z,46.80
2018-05-07T18:39:42.817Z,46.80
2018-05-07T18:42:14.028Z,47.00
2018-05-07T18:44:45.198Z,47.00
2018-05-07T18:47:16.579Z,47.30
2018-05-07T18:49:48.554Z,47.60
2018-05-07T18:52:20.517Z,47.70
2018-05-07T18:54:52.518Z,47.90
2018-05-07T18:57:23.747Z,47.90
2018-05-07T18:59:55.051Z,48.00
2018-05-07T19:02:26.342Z,48.20
2018-05-07T19:04:57.557Z,48.50
2018-05-07T19:07:28.752Z,48.70
2018-05-07T19:09:59.966Z,48.90
2018-05-07T19:12:31.214Z,49.20
2018-05-07T19:15:02.461Z,49.60
2018-05-07T19:17:33.968Z,50.00
2018-05-07T19:20:05.612Z,50.50
2018-05-07T19:22:36.775Z,50.60
2018-05-07T19:25:08.064Z,51.10
2018-05-07T19:27:39.269Z,51.20
2018-05-07T19:30:11.235Z,51.40
2018-05-07T19:32:43.315Z,52.00
2018-05-07T19:35:14.725Z,52.10
2018-05-07T19:37:46.054Z,52.30
2018-05-07T19:40:17.403Z,52.60
2018-05-07T19:42:48.809Z,52.90
2018-05-07T19:45:20.062Z,53.10
2018-05-07T19:47:51.700Z,53.50
2018-05-07T19:50:22.934Z,53.80
2018-05-07T19:52:54.896Z,54.20
2018-05-07T19:55:26.878Z,54.40
2018-05-07T19:57:58.111Z,54.40
2018-05-07T20:00:29.277Z,54.60
2018-05-07T20:03:00.495Z,55.40
2018-05-07T20:05:32.420Z,55.10
2018-05-07T20:08:03.659Z,55.10
2018-05-07T20:10:34.846Z,55.10
2018-05-07T20:13:06.090Z,55.20
2018-05-07T20:15:38.091Z,55.50
2018-05-07T20:18:09.443Z,55.50
2018-05-07T20:20:40.680Z,55.70
2018-05-07T20:23:11.890Z,55.90
2018-05-07T20:25:43.406Z,56.20
2018-05-07T20:28:14.707Z,56.40
2018-05-07T20:30:45.914Z,56.40
2018-05-07T20:33:17.857Z,56.80
2018-05-07T20:35:49.192Z,56.70
2018-05-07T20:38:20.353Z,57.10
2018-05-07T20:40:51.662Z,57.30
2018-05-07T20:43:22.877Z,57.30
2018-05-07T20:45:55.145Z,57.60
2018-05-07T20:48:26.467Z,57.50
2018-05-07T20:50:58.776Z,57.50
2018-05-07T20:53:29.950Z,57.50
2018-05-07T20:56:01.322Z,57.60
2018-05-07T20:58:33.274Z,58.10
2018-05-07T21:01:05.201Z,58.20
2018-05-07T21:03:36.429Z,58.20
2018-05-07T21:06:07.670Z,58.40
2018-05-07T21:08:39.069Z,58.50
2018-05-07T21:11:10.443Z,58.70
2018-05-07T21:13:41.925Z,58.90
2018-05-07T21:16:13.283Z,59.10
2018-05-07T21:18:44.509Z,59.20
2018-05-07T21:21:15.740Z,59.40
2018-05-07T21:23:47.678Z,59.50
2018-05-07T21:26:19.625Z,59.60
2018-05-07T21:28:50.876Z,59.60
2018-05-07T21:31:22.164Z,59.80
2018-05-07T21:33:53.324Z,59.70
2018-05-07T21:36:24.829Z,59.50
2018-05-07T21:38:56.198Z,59.40
2018-05-07T21:41:27.443Z,59.80
2018-05-07T21:43:58.660Z,59.90
2018-05-07T21:46:30.664Z,59.80
2018-05-07T21:49:01.967Z,59.80
2018-05-07T21:51:33.951Z,60.90
2018-05-07T21:54:05.207Z,60.00
2018-05-07T21:56:36.479Z,60.20
2018-05-07T21:59:07.782Z,59.90
2018-05-07T22:01:38.961Z,59.80
2018-05-07T22:04:10.442Z,59.80
2018-05-07T22:06:42.375Z,59.80
2018-05-07T22:09:13.541Z,59.80
2018-05-07T22:11:44.776Z,60.00
2018-05-07T22:14:16.277Z,60.20
2018-05-07T22:16:47.517Z,60.40
2018-05-07T22:19:19.477Z,60.30
2018-05-07T22:21:51.409Z,60.50
2018-05-07T22:24:22.627Z,60.50
2018-05-07T22:26:55.628Z,60.70
2018-05-07T22:29:27.135Z,60.70
2018-05-07T22:31:58.333Z,60.90
2018-05-07T22:34:29.556Z,61.10
2018-05-07T22:37:00.810Z,61.00
2018-05-07T22:39:32.090Z,61.20
2018-05-07T22:42:03.386Z,61.40
2018-05-07T22:44:34.559Z,61.50
2018-05-07T22:47:05.767Z,61.90
2018-05-07T22:49:37.688Z,62.20
2018-05-07T22:52:08.968Z,62.20
2018-05-07T22:54:40.149Z,62.30
2018-05-07T22:57:11.451Z,62.50
2018-05-07T22:59:42.668Z,62.70
2018-05-07T23:02:14.003Z,62.90
2018-05-07T23:04:45.983Z,63.40
2018-05-07T23:07:17.205Z,63.30
2018-05-07T23:09:49.496Z,63.80
2018-05-07T23:12:20.696Z,63.80
2018-05-07T23:14:51.906Z,64.20
2018-05-07T23:17:23.150Z,64.60
2018-05-07T23:19:54.377Z,64.60
2018-05-07T23:22:25.562Z,64.70
2018-05-07T23:24:57.547Z,64.70
2018-05-07T23:27:29.498Z,64.90
2018-05-07T23:30:00.682Z,64.90
2018-05-07T23:32:31.922Z,65.10
2018-05-07T23:35:03.181Z,65.10
2018-05-07T23:37:34.460Z,65.20
2018-05-07T23:40:05.625Z,65.70
2018-05-07T23:42:37.581Z,66.20
2018-05-07T23:45:08.739Z,66.10
2018-05-07T23:47:40.944Z,66.80
2018-05-07T23:50:12.206Z,66.70
2018-05-07T23:52:43.429Z,66.80
2018-05-07T23:55:14.672Z,67.30
2018-05-07T23:57:45.934Z,67.30
